createdAt,value
2018-07-12T00:00:13.385Z,22.90
2018-07-12T00:01:13.386Z,21.00
2018-07-12T00:02:13.385Z,23.50
2018-07-12T00:03:13.264Z,23.80
2018-07-12T00:04:13.265Z,23.50
2018-07-12T00:05:13.261Z,21.30
2018-07-12T00:06:13.144Z,21.30
2018-07-12T00:07:13.143Z,22.30
2018-07-12T00:08:13.145Z,21.70
2018-07-12T00:09:13.020Z,23.90
2018-07-12T00:10:13.024Z,24.60
2018-07-12T00:11:13.025Z,22.40
2018-07-12T00:12:12.899Z,22.60
2018-07-12T00:13:12.902Z,21.40
2018-07-12T00:14:12.899Z,20.80
2018-07-12T00:15:12.780Z,23.40
2018-07-12T00:16:12.780Z,22.50
2018-07-12T00:17:12.780Z,21.10
2018-07-12T00:18:12.660Z,20.40
2018-07-12T00:19:12.659Z,22.30
2018-07-12T00:20:12.658Z,24.30
2018-07-12T00:21:12.543Z,23.40
2018-07-12T00:22:12.540Z,20.60
2018-07-12T00:23:12.541Z,23.00
2018-07-12T00:24:12.418Z,25.50
2018-07-12T00:25:12.415Z,24.10
2018-07-12T00:26:12.374Z,22.70
2018-07-12T00:27:12.302Z,23.30
2018-07-12T00:28:12.297Z,25.90
2018-07-12T00:29:12.180Z,21.90
2018-07-12T00:30:12.179Z,24.10
2018-07-12T00:31:12.177Z,25.40
2018-07-12T00:32:12.056Z,22.40
2018-07-12T00:33:12.054Z,23.20
2018-07-12T00:34:12.055Z,24.80
2018-07-12T00:35:11.938Z,21.80
2018-07-12T00:36:11.939Z,26.80
2018-07-12T00:37:11.935Z,27.70
2018-07-12T00:38:11.814Z,24.90
2018-07-12T00:39:11.813Z,24.60
2018-07-12T00:40:11.816Z,24.80
2018-07-12T00:41:11.699Z,29.10
2018-07-12T00:42:11.699Z,27.30
2018-07-12T00:43:11.697Z,25.50
2018-07-12T00:44:11.578Z,26.00
2018-07-12T00:45:11.574Z,27.70
2018-07-12T00:46:11.573Z,24.70
2018-07-12T00:47:11.459Z,24.20
2018-07-12T00:48:11.454Z,22.60
2018-07-12T00:49:11.452Z,27.90
2018-07-12T00:50:11.334Z,23.40
2018-07-12T00:51:11.332Z,23.70
2018-07-12T00:52:11.333Z,27.60
2018-07-12T00:53:11.211Z,27.00
2018-07-12T00:54:11.214Z,26.60
2018-07-12T00:55:11.170Z,26.30
2018-07-12T00:56:11.093Z,24.90
2018-07-12T00:57:11.090Z,25.80
2018-07-12T00:58:10.973Z,26.80
2018-07-12T00:59:10.971Z,24.70
2018-07-12T01:00:10.968Z,23.50
2018-07-12T01:01:10.850Z,26.60
2018-07-12T01:02:10.850Z,24.80
2018-07-12T01:03:10.850Z,24.20
2018-07-12T01:04:10.732Z,25.70
2018-07-12T01:05:10.729Z,28.60
2018-07-12T01:06:10.727Z,25.30
2018-07-12T01:07:10.608Z,25.30
2018-07-12T01:08:10.611Z,28.20
2018-07-12T01:09:10.607Z,22.80
2018-07-12T01:10:10.488Z,25.10
2018-07-12T01:11:10.490Z,25.20
2018-07-12T01:12:10.485Z,26.70
2018-07-12T01:13:10.374Z,27.60
2018-07-12T01:14:10.369Z,25.40
2018-07-12T01:15:10.368Z,25.10
2018-07-12T01:16:10.248Z,27.00
2018-07-12T01:17:10.245Z,24.90
2018-07-12T01:18:10.248Z,24.40
2018-07-12T01:19:10.130Z,23.80
2018-07-12T01:20:10.125Z,25.30
2018-07-12T01:21:10.129Z,27.10
2018-07-12T01:22:10.007Z,24.60
2018-07-12T01:23:10.006Z,27.90
2018-07-12T01:24:09.886Z,27.00
2018-07-12T01:25:09.885Z,26.10
2018-07-12T01:26:09.885Z,26.10
2018-07-12T01:27:09.763Z,27.80
2018-07-12T01:28:09.765Z,28.20
2018-07-12T01:29:09.765Z,24.70
2018-07-12T01:30:09.646Z,25.80
2018-07-12T01:31:09.642Z,23.60
2018-07-12T01:32:09.646Z,26.30
2018-07-12T01:33:09.521Z,23.20
2018-07-12T01:34:09.526Z,26.30
2018-07-12T01:35:09.520Z,27.60
2018-07-12T01:36:09.539Z,25.30
2018-07-12T01:37:09.402Z,26.90
2018-07-12T01:38:09.404Z,28.90
2018-07-12T01:39:09.279Z,25.30
2018-07-12T01:40:09.280Z,24.80
2018-07-12T01:41:09.282Z,28.40
2018-07-12T01:42:09.160Z,26.30
2018-07-12T01:43:09.164Z,26.60
2018-07-12T01:44:09.161Z,31.00
2018-07-12T01:45:09.042Z,24.80
2018-07-12T01:46:09.041Z,25.20
2018-07-12T01:47:09.039Z,27.20
2018-07-12T01:48:08.919Z,27.90
2018-07-12T01:49:08.921Z,24.60
2018-07-12T01:50:08.923Z,23.30
2018-07-12T01:51:08.797Z,25.50
2018-07-12T01:52:08.799Z,26.40
2018-07-12T01:53:08.680Z,25.90
2018-07-12T01:54:08.680Z,26.50
2018-07-12T01:55:08.679Z,23.90
2018-07-12T01:56:08.559Z,27.00
2018-07-12T01:57:08.556Z,26.50
2018-07-12T01:58:08.559Z,24.50
2018-07-12T01:59:08.435Z,23.40
2018-07-12T02:00:08.434Z,22.10
2018-07-12T02:01:08.438Z,24.00
2018-07-12T02:02:08.317Z,23.80
2018-07-12T02:03:08.318Z,24.60
2018-07-12T02:04:08.315Z,23.60
2018-07-12T02:05:08.195Z,24.90
2018-07-12T02:06:08.202Z,23.60
2018-07-12T02:07:08.196Z,22.20
2018-07-12T02:08:08.076Z,24.00
2018-07-12T02:09:08.078Z,23.60
2018-07-12T02:10:08.073Z,21.60
2018-07-12T02:11:07.955Z,22.10
2018-07-12T02:12:07.957Z,21.00
2018-07-12T02:13:07.953Z,20.60
2018-07-12T02:14:07.833Z,22.40
2018-07-12T02:15:07.831Z,19.60
2018-07-12T02:16:07.788Z,22.60
2018-07-12T02:17:07.714Z,21.90
2018-07-12T02:18:07.715Z,21.30
2018-07-12T02:19:07.595Z,20.50
2018-07-12T02:20:07.595Z,20.90
2018-07-12T02:21:07.590Z,20.60
2018-07-12T02:22:07.475Z,24.10
2018-07-12T02:23:07.470Z,21.30
2018-07-12T02:24:07.471Z,20.10
2018-07-12T02:25:07.350Z,23.90
2018-07-12T02:26:07.354Z,22.90
2018-07-12T02:27:07.349Z,22.00
2018-07-12T02:28:07.232Z,22.30
2018-07-12T02:29:07.233Z,24.60
2018-07-12T02:30:07.231Z,21.70
2018-07-12T02:31:07.108Z,24.60
2018-07-12T02:32:07.109Z,23.70
2018-07-12T02:33:07.108Z,22.10
2018-07-12T02:34:06.986Z,24.30
2018-07-12T02:35:07.011Z,22.60
2018-07-12T02:36:06.988Z,21.90
2018-07-12T02:37:06.872Z,26.90
2018-07-12T02:38:06.867Z,23.20
2018-07-12T02:39:06.823Z,22.20
2018-07-12T02:40:06.748Z,24.30
2018-07-12T02:41:06.745Z,23.10
2018-07-12T02:42:06.704Z,24.10
2018-07-12T02:43:06.632Z,26.80
2018-07-12T02:44:06.629Z,26.00
2018-07-12T02:45:06.525Z,25.20
2018-07-12T02:46:06.581Z,26.90
2018-07-12T02:47:06.514Z,27.40
2018-07-12T02:48:06.389Z,27.70
2018-07-12T02:49:06.386Z,26.40
2018-07-12T02:50:06.391Z,22.80
2018-07-12T02:51:06.282Z,24.80
2018-07-12T02:52:06.264Z,27.60
2018-07-12T02:53:06.263Z,25.80
2018-07-12T02:54:06.143Z,24.30
2018-07-12T02:55:06.147Z,24.30
2018-07-12T02:56:06.143Z,24.90
2018-07-12T02:57:06.024Z,21.30
2018-07-12T02:58:06.023Z,25.20
2018-07-12T02:59:06.026Z,24.40
2018-07-12T03:00:05.906Z,21.80
2018-07-12T03:01:05.906Z,24.10
2018-07-12T03:02:05.782Z,23.70
2018-07-12T03:03:05.785Z,23.90
2018-07-12T03:04:05.784Z,25.30
2018-07-12T03:05:05.664Z,26.40
2018-07-12T03:06:05.669Z,24.00
2018-07-12T03:07:05.663Z,22.80
2018-07-12T03:08:05.543Z,24.00
2018-07-12T03:09:05.541Z,26.00
2018-07-12T03:10:05.542Z,22.20
2018-07-12T03:11:05.419Z,25.10
2018-07-12T03:12:05.422Z,23.80
2018-07-12T03:13:05.424Z,23.40
2018-07-12T03:14:05.301Z,22.60
2018-07-12T03:15:05.299Z,25.00
2018-07-12T03:16:05.304Z,23.40
2018-07-12T03:17:05.179Z,21.90
2018-07-12T03:18:05.178Z,22.80
2018-07-12T03:19:05.135Z,27.20
2018-07-12T03:20:05.059Z,25.30
2018-07-12T03:21:05.057Z,25.70
2018-07-12T03:22:04.940Z,26.30
2018-07-12T03:23:04.943Z,25.90
2018-07-12T03:24:04.936Z,25.60
2018-07-12T03:25:04.820Z,24.00
2018-07-12T03:26:04.820Z,28.10
2018-07-12T03:27:04.815Z,25.20
2018-07-12T03:28:04.698Z,29.20
2018-07-12T03:29:04.700Z,26.30
2018-07-12T03:30:04.702Z,28.90
2018-07-12T03:31:04.577Z,28.00
2018-07-12T03:32:04.584Z,28.00
2018-07-12T03:33:04.575Z,30.50
2018-07-12T03:34:04.457Z,27.00
2018-07-12T03:35:04.456Z,26.10
2018-07-12T03:36:04.461Z,28.20
2018-07-12T03:37:04.334Z,25.70
2018-07-12T03:38:04.336Z,25.50
2018-07-12T03:39:04.212Z,27.60
2018-07-12T03:40:04.217Z,24.60
2018-07-12T03:41:04.218Z,24.10
2018-07-12T03:42:04.094Z,25.30
2018-07-12T03:43:04.099Z,25.10
2018-07-12T03:44:04.100Z,30.00
2018-07-12T03:45:03.976Z,26.20
2018-07-12T03:46:03.972Z,29.90
2018-07-12T03:47:03.971Z,26.80
2018-07-12T03:48:03.852Z,29.40
2018-07-12T03:49:03.857Z,24.50
2018-07-12T03:50:03.853Z,26.80
2018-07-12T03:51:03.735Z,30.60
2018-07-12T03:52:03.735Z,32.00
2018-07-12T03:53:03.729Z,28.90
2018-07-12T03:54:03.609Z,30.60
2018-07-12T03:55:03.613Z,31.00
2018-07-12T03:56:03.608Z,30.00
2018-07-12T03:57:03.490Z,30.00
2018-07-12T03:58:03.535Z,30.40
2018-07-12T03:59:03.368Z,31.30
2018-07-12T04:00:03.370Z,26.20
2018-07-12T04:01:03.371Z,29.60
2018-07-12T04:02:03.252Z,29.80
2018-07-12T04:03:03.253Z,27.60
2018-07-12T04:04:03.249Z,29.10
2018-07-12T04:05:03.135Z,27.50
2018-07-12T04:06:03.133Z,29.30
2018-07-12T04:07:03.126Z,28.40
2018-07-12T04:08:03.006Z,27.50
2018-07-12T04:09:03.008Z,30.20
2018-07-12T04:10:03.005Z,27.90
2018-07-12T04:11:02.918Z,25.30
2018-07-12T04:12:02.884Z,29.10
2018-07-12T04:13:02.843Z,30.70
2018-07-12T04:14:02.764Z,30.90
2018-07-12T04:15:02.772Z,30.00
2018-07-12T04:16:02.654Z,34.40
2018-07-12T04:17:02.649Z,28.00
2018-07-12T04:18:02.645Z,32.60
2018-07-12T04:19:02.524Z,32.30
2018-07-12T04:20:02.525Z,27.90
2018-07-12T04:21:02.535Z,33.40
2018-07-12T04:22:02.402Z,32.30
2018-07-12T04:23:02.407Z,30.50
2018-07-12T04:24:02.404Z,29.60
2018-07-12T04:25:02.289Z,31.40
2018-07-12T04:26:02.284Z,28.00
2018-07-12T04:27:02.286Z,32.30
2018-07-12T04:28:02.166Z,27.50
2018-07-12T04:29:02.161Z,27.80
2018-07-12T04:30:02.163Z,27.50
2018-07-12T04:31:02.047Z,29.70
2018-07-12T04:32:02.043Z,30.70
2018-07-12T04:33:01.920Z,26.90
2018-07-12T04:34:01.925Z,28.20
2018-07-12T04:35:01.922Z,28.70
2018-07-12T04:36:01.804Z,29.80
2018-07-12T04:37:01.803Z,31.20
2018-07-12T04:38:01.805Z,25.10
2018-07-12T04:39:01.683Z,29.50
2018-07-12T04:40:01.684Z,31.40
2018-07-12T04:41:01.678Z,25.90
2018-07-12T04:42:01.558Z,29.00
2018-07-12T04:43:01.558Z,26.00
2018-07-12T04:44:01.562Z,30.00
2018-07-12T04:45:01.440Z,26.30
2018-07-12T04:46:01.439Z,24.60
2018-07-12T04:47:01.445Z,23.50
2018-07-12T04:48:01.318Z,29.00
2018-07-12T04:49:01.317Z,26.20
2018-07-12T04:50:01.284Z,29.40
2018-07-12T04:51:01.199Z,23.70
2018-07-12T04:52:01.195Z,24.50
2018-07-12T04:53:01.075Z,23.90
2018-07-12T04:54:01.078Z,24.40
2018-07-12T04:55:01.077Z,26.90
2018-07-12T04:56:00.957Z,26.00
2018-07-12T04:57:00.961Z,26.80
2018-07-12T04:58:00.958Z,27.30
2018-07-12T04:59:00.835Z,24.50
2018-07-12T05:00:00.913Z,22.70
2018-07-12T05:01:00.842Z,25.30
2018-07-12T05:02:00.721Z,26.60
2018-07-12T05:03:00.717Z,24.90
2018-07-12T05:04:00.718Z,26.00
2018-07-12T05:05:00.599Z,26.90
2018-07-12T05:06:00.598Z,23.20
2018-07-12T05:07:00.592Z,26.40
2018-07-12T05:08:00.494Z,24.90
2018-07-12T05:09:00.471Z,24.50
2018-07-12T05:10:00.354Z,27.50
2018-07-12T05:11:00.353Z,25.90
2018-07-12T05:12:00.353Z,26.40
2018-07-12T05:13:00.237Z,23.50
2018-07-12T05:14:00.248Z,25.10
2018-07-12T05:15:00.291Z,26.00
2018-07-12T05:16:00.117Z,24.60
2018-07-12T05:17:00.112Z,24.20
2018-07-12T05:18:00.124Z,24.80
2018-07-12T05:18:59.995Z,25.90
2018-07-12T05:19:59.992Z,27.60
2018-07-12T05:20:59.992Z,26.60
2018-07-12T05:21:59.926Z,25.70
2018-07-12T05:22:59.875Z,26.20
2018-07-12T05:23:59.871Z,26.50
2018-07-12T05:24:59.751Z,27.20
2018-07-12T05:25:59.755Z,25.60
2018-07-12T05:26:59.746Z,24.60
2018-07-12T05:27:59.633Z,24.90
2018-07-12T05:28:59.629Z,27.60
2018-07-12T05:29:59.508Z,26.20
2018-07-12T05:30:59.508Z,25.60
2018-07-12T05:31:59.508Z,25.80
2018-07-12T05:32:59.387Z,23.80
2018-07-12T05:33:59.388Z,23.50
2018-07-12T05:34:59.387Z,24.90
2018-07-12T05:35:59.268Z,24.20
2018-07-12T05:36:59.268Z,26.30
2018-07-12T05:37:59.266Z,23.30
2018-07-12T05:38:59.206Z,24.10
2018-07-12T05:39:59.145Z,23.90
2018-07-12T05:40:59.144Z,24.00
2018-07-12T05:41:59.028Z,23.30
2018-07-12T05:42:59.026Z,24.90
2018-07-12T05:43:59.027Z,24.70
2018-07-12T05:44:58.905Z,23.00
2018-07-12T05:45:58.905Z,23.90
2018-07-12T05:46:58.906Z,27.80
2018-07-12T05:47:58.785Z,24.70
2018-07-12T05:48:58.782Z,22.30
2018-07-12T05:49:58.789Z,23.80
2018-07-12T05:50:58.661Z,26.60
2018-07-12T05:51:58.666Z,24.70
2018-07-12T05:52:58.546Z,24.20
2018-07-12T05:53:58.543Z,25.80
2018-07-12T05:54:58.541Z,23.70
2018-07-12T05:55:58.422Z,25.30
2018-07-12T05:56:58.420Z,23.30
2018-07-12T05:57:58.420Z,26.30
2018-07-12T05:58:58.303Z,23.60
2018-07-12T05:59:58.299Z,24.30
2018-07-12T06:00:58.303Z,26.50
2018-07-12T06:01:58.179Z,24.20
2018-07-12T06:02:58.263Z,25.10
2018-07-12T06:03:58.178Z,23.40
2018-07-12T06:04:58.063Z,23.10
2018-07-12T06:05:58.063Z,24.10
2018-07-12T06:06:58.066Z,23.60
2018-07-12T06:07:57.940Z,26.70
2018-07-12T06:08:57.939Z,27.30
2018-07-12T06:09:57.937Z,25.90
2018-07-12T06:10:57.822Z,27.10
2018-07-12T06:11:57.822Z,24.60
2018-07-12T06:12:57.818Z,24.40
2018-07-12T06:13:57.699Z,24.80
2018-07-12T06:14:57.695Z,23.30
2018-07-12T06:15:57.580Z,25.70
2018-07-12T06:16:57.591Z,25.40
2018-07-12T06:17:57.579Z,27.00
2018-07-12T06:18:57.510Z,24.90
2018-07-12T06:19:57.455Z,25.40
2018-07-12T06:20:57.457Z,26.30
2018-07-12T06:21:57.339Z,28.00
2018-07-12T06:22:57.344Z,26.80
2018-07-12T06:23:57.345Z,28.10
2018-07-12T06:24:57.214Z,24.80
2018-07-12T06:25:57.216Z,27.80
2018-07-12T06:26:57.217Z,25.10
2018-07-12T06:27:57.100Z,25.50
2018-07-12T06:28:57.096Z,25.50
2018-07-12T06:29:57.122Z,28.50
2018-07-12T06:30:56.978Z,25.60
2018-07-12T06:31:56.981Z,27.00
2018-07-12T06:32:56.974Z,25.10
2018-07-12T06:33:56.855Z,27.80
2018-07-12T06:34:56.853Z,25.70
2018-07-12T06:35:56.851Z,26.70
2018-07-12T06:36:56.735Z,24.60
2018-07-12T06:37:56.737Z,28.20
2018-07-12T06:38:56.733Z,25.50
2018-07-12T06:39:56.612Z,24.50
2018-07-12T06:40:56.613Z,26.20
2018-07-12T06:41:56.612Z,28.30
2018-07-12T06:42:56.491Z,26.00
2018-07-12T06:43:56.545Z,25.50
2018-07-12T06:44:56.450Z,24.90
2018-07-12T06:45:56.374Z,26.40
2018-07-12T06:46:56.369Z,26.10
2018-07-12T06:47:56.256Z,24.80
2018-07-12T06:48:56.252Z,25.20
2018-07-12T06:49:56.251Z,28.80
2018-07-12T06:50:56.129Z,25.80
2018-07-12T06:51:56.130Z,27.30
2018-07-12T06:52:56.159Z,25.70
2018-07-12T06:53:56.007Z,27.50
2018-07-12T06:54:56.008Z,24.80
2018-07-12T06:55:56.012Z,23.80
2018-07-12T06:56:55.892Z,27.80
2018-07-12T06:57:55.893Z,24.70
2018-07-12T06:58:55.892Z,25.20
2018-07-12T06:59:55.767Z,25.50
2018-07-12T07:00:55.776Z,23.70
2018-07-12T07:01:55.768Z,23.50
2018-07-12T07:02:55.647Z,26.30
2018-07-12T07:03:55.647Z,24.60
2018-07-12T07:04:55.645Z,23.60
2018-07-12T07:05:55.581Z,27.20
2018-07-12T07:06:55.529Z,25.40
2018-07-12T07:07:55.531Z,23.60
2018-07-12T07:08:55.409Z,23.60
2018-07-12T07:09:55.407Z,25.60
2018-07-12T07:10:55.405Z,26.60
2018-07-12T07:11:55.285Z,26.60
2018-07-12T07:12:55.284Z,24.30
2018-07-12T07:13:55.285Z,24.00
2018-07-12T07:14:55.164Z,24.20
2018-07-12T07:15:55.163Z,23.60
2018-07-12T07:16:55.162Z,25.20
2018-07-12T07:17:55.045Z,22.90
2018-07-12T07:18:55.049Z,24.20
2018-07-12T07:19:55.056Z,25.70
2018-07-12T07:20:54.929Z,24.30
2018-07-12T07:21:54.937Z,24.20
2018-07-12T07:22:54.930Z,23.70
2018-07-12T07:23:54.811Z,23.00
2018-07-12T07:24:54.812Z,23.90
2018-07-12T07:25:54.807Z,23.00
2018-07-12T07:26:54.815Z,25.80
2018-07-12T07:27:54.695Z,22.50
2018-07-12T07:28:54.693Z,22.40
2018-07-12T07:29:54.564Z,23.90
2018-07-12T07:30:54.562Z,22.70
2018-07-12T07:31:54.557Z,22.60
2018-07-12T07:32:54.441Z,23.10
2018-07-12T07:33:54.443Z,21.40
2018-07-12T07:34:54.441Z,21.70
2018-07-12T07:35:54.318Z,21.40
2018-07-12T07:36:54.321Z,20.80
2018-07-12T07:37:54.276Z,21.20
2018-07-12T07:38:54.202Z,22.60
2018-07-12T07:39:54.200Z,22.70
2018-07-12T07:40:54.085Z,21.70
2018-07-12T07:41:54.085Z,25.10
2018-07-12T07:42:54.141Z,22.60
2018-07-12T07:43:54.035Z,22.00
2018-07-12T07:44:53.959Z,22.10
2018-07-12T07:45:53.959Z,21.40
2018-07-12T07:46:53.836Z,22.50
2018-07-12T07:47:53.840Z,20.80
2018-07-12T07:48:53.841Z,22.50
2018-07-12T07:49:53.716Z,22.40
2018-07-12T07:50:53.715Z,21.00
2018-07-12T07:51:53.718Z,20.50
2018-07-12T07:52:53.598Z,18.10
2018-07-12T07:53:53.594Z,18.40
2018-07-12T07:54:53.594Z,19.50
2018-07-12T07:55:53.478Z,19.30
2018-07-12T07:56:53.476Z,18.50
2018-07-12T07:57:53.481Z,18.20
2018-07-12T07:58:53.352Z,17.80
2018-07-12T07:59:53.352Z,17.80
2018-07-12T08:00:53.356Z,20.60
2018-07-12T08:01:53.233Z,18.40
2018-07-12T08:02:53.232Z,17.90
2018-07-12T08:03:53.232Z,17.30
2018-07-12T08:04:53.112Z,19.30
2018-07-12T08:05:53.112Z,18.80
2018-07-12T08:06:53.119Z,18.80
2018-07-12T08:07:52.997Z,17.60
2018-07-12T08:08:52.992Z,17.40
2018-07-12T08:09:52.994Z,16.70
2018-07-12T08:10:52.876Z,18.10
2018-07-12T08:11:52.874Z,18.00
2018-07-12T08:12:52.877Z,16.90
2018-07-12T08:13:52.754Z,18.10
2018-07-12T08:14:52.752Z,18.30
2018-07-12T08:15:52.751Z,17.40
2018-07-12T08:16:52.632Z,18.10
2018-07-12T08:17:52.631Z,19.30
2018-07-12T08:18:52.631Z,16.50
2018-07-12T08:19:52.511Z,19.00
2018-07-12T08:20:52.515Z,16.40
2018-07-12T08:21:52.508Z,18.10
2018-07-12T08:22:52.389Z,17.50
2018-07-12T08:23:52.389Z,16.90
2018-07-12T08:24:52.386Z,20.30
2018-07-12T08:25:52.268Z,20.40
2018-07-12T08:26:52.268Z,15.90
2018-07-12T08:27:52.269Z,15.50
2018-07-12T08:28:52.296Z,15.60
2018-07-12T08:29:52.206Z,16.50
2018-07-12T08:30:52.147Z,13.40
2018-07-12T08:31:52.103Z,16.30
2018-07-12T08:32:52.029Z,15.50
2018-07-12T08:33:52.028Z,15.70
2018-07-12T08:34:52.026Z,16.90
2018-07-12T08:35:51.907Z,15.40
2018-07-12T08:36:51.914Z,16.80
2018-07-12T08:37:51.905Z,15.10
2018-07-12T08:38:51.786Z,14.00
2018-07-12T08:39:51.788Z,16.30
2018-07-12T08:40:51.782Z,15.80
2018-07-12T08:41:51.669Z,14.00
2018-07-12T08:42:51.716Z,12.70
2018-07-12T08:43:51.666Z,13.70
2018-07-12T08:44:51.543Z,14.30
2018-07-12T08:45:51.542Z,13.40
2018-07-12T08:46:51.540Z,15.10
2018-07-12T08:47:51.420Z,14.50
2018-07-12T08:48:51.423Z,13.10
2018-07-12T08:49:51.422Z,15.10
2018-07-12T08:50:51.300Z,13.50
2018-07-12T08:51:51.300Z,13.00
2018-07-12T08:52:51.299Z,16.80
2018-07-12T08:53:51.184Z,13.50
2018-07-12T08:54:51.181Z,15.60
2018-07-12T08:55:51.182Z,14.60
2018-07-12T08:56:51.063Z,14.40
2018-07-12T08:57:51.059Z,15.90
2018-07-12T08:58:51.067Z,13.00
2018-07-12T08:59:50.941Z,11.40
2018-07-12T09:00:50.942Z,14.60
2018-07-12T09:01:50.939Z,11.30
2018-07-12T09:02:50.936Z,12.70
2018-07-12T09:03:50.821Z,14.80
2018-07-12T09:04:50.818Z,11.90
2018-07-12T09:05:50.774Z,14.70
2018-07-12T09:06:50.701Z,11.00
2018-07-12T09:07:50.699Z,11.30
2018-07-12T09:08:50.698Z,13.00
2018-07-12T09:09:50.579Z,12.10
2018-07-12T09:10:50.578Z,12.10
2018-07-12T09:11:50.578Z,11.40
2018-07-12T09:12:50.476Z,12.10
2018-07-12T09:13:50.458Z,13.10
2018-07-12T09:14:50.459Z,14.10
2018-07-12T09:15:50.397Z,10.90
2018-07-12T09:16:50.338Z,11.30
2018-07-12T09:17:50.332Z,11.10
2018-07-12T09:18:50.216Z,11.10
2018-07-12T09:19:50.216Z,11.60
2018-07-12T09:20:50.214Z,10.10
2018-07-12T09:21:50.194Z,13.90
2018-07-12T09:22:50.096Z,11.00
2018-07-12T09:23:50.096Z,12.30
2018-07-12T09:24:50.049Z,11.60
2018-07-12T09:25:49.973Z,13.30
2018-07-12T09:26:49.982Z,12.80
2018-07-12T09:27:49.972Z,12.30
2018-07-12T09:28:49.902Z,11.10
2018-07-12T09:29:49.857Z,14.90
2018-07-12T09:30:49.911Z,12.40
2018-07-12T09:31:49.735Z,14.10
2018-07-12T09:32:49.731Z,11.70
2018-07-12T09:33:49.736Z,11.70
2018-07-12T09:34:49.744Z,12.00
2018-07-12T09:35:49.613Z,13.10
2018-07-12T09:36:49.610Z,11.20
2018-07-12T09:37:49.493Z,10.90
2018-07-12T09:38:49.491Z,12.00
2018-07-12T09:39:49.550Z,12.80
2018-07-12T09:40:49.370Z,14.60
2018-07-12T09:41:49.367Z,15.50
2018-07-12T09:42:49.381Z,13.20
2018-07-12T09:43:49.449Z,13.70
2018-07-12T09:44:49.250Z,10.40
2018-07-12T09:45:49.247Z,10.60
2018-07-12T09:46:49.258Z,11.50
2018-07-12T09:47:49.127Z,12.70
2018-07-12T09:48:49.129Z,13.70
2018-07-12T09:49:49.131Z,12.40
2018-07-12T09:50:49.015Z,12.10
2018-07-12T09:51:49.009Z,12.80
2018-07-12T09:52:49.008Z,11.30
2018-07-12T09:53:49.005Z,13.60
2018-07-12T09:54:48.892Z,11.50
2018-07-12T09:55:48.958Z,13.00
2018-07-12T09:56:48.956Z,11.70
2018-07-12T09:57:48.770Z,13.00
2018-07-12T09:58:48.767Z,12.60
2018-07-12T09:59:48.765Z,11.10
2018-07-12T10:00:48.646Z,12.80
2018-07-12T10:01:48.649Z,12.90
2018-07-12T10:02:48.642Z,11.50
2018-07-12T10:03:48.523Z,12.50
2018-07-12T10:04:48.522Z,13.50
2018-07-12T10:05:48.528Z,14.10
2018-07-12T10:06:48.531Z,14.30
2018-07-12T10:07:48.407Z,13.50
2018-07-12T10:08:48.406Z,14.00
2018-07-12T10:09:48.406Z,14.80
2018-07-12T10:10:48.284Z,14.60
2018-07-12T10:11:48.285Z,15.80
2018-07-12T10:12:48.285Z,13.00
2018-07-12T10:13:48.164Z,15.50
2018-07-12T10:14:48.164Z,13.90
2018-07-12T10:15:48.164Z,14.60
2018-07-12T10:16:48.040Z,13.30
2018-07-12T10:17:48.043Z,12.70
2018-07-12T10:18:48.042Z,15.20
2018-07-12T10:19:48.095Z,12.30
2018-07-12T10:20:47.917Z,16.50
2018-07-12T10:21:47.919Z,16.20
2018-07-12T10:22:47.924Z,14.50
2018-07-12T10:23:47.797Z,18.80
2018-07-12T10:24:47.797Z,16.50
2018-07-12T10:25:47.798Z,15.10
2018-07-12T10:26:47.684Z,14.90
2018-07-12T10:27:47.690Z,14.50
2018-07-12T10:28:47.682Z,14.10
2018-07-12T10:29:47.708Z,15.00
2018-07-12T10:30:47.558Z,14.10
2018-07-12T10:31:47.637Z,15.00
2018-07-12T10:32:47.560Z,15.30
2018-07-12T10:33:47.438Z,14.90
2018-07-12T10:34:47.448Z,14.80
2018-07-12T10:35:47.442Z,14.00
2018-07-12T10:36:47.316Z,19.30
2018-07-12T10:37:47.320Z,15.70
2018-07-12T10:38:47.318Z,15.10
2018-07-12T10:39:47.324Z,14.90
2018-07-12T10:40:47.199Z,13.70
2018-07-12T10:41:47.195Z,14.20
2018-07-12T10:42:47.198Z,15.90
2018-07-12T10:43:47.072Z,16.10
2018-07-12T10:44:47.077Z,14.70
2018-07-12T10:45:47.071Z,14.70
2018-07-12T10:46:46.961Z,15.60
2018-07-12T10:47:46.962Z,16.60
2018-07-12T10:48:46.953Z,16.20
2018-07-12T10:49:46.956Z,15.60
2018-07-12T10:50:46.831Z,15.80
2018-07-12T10:51:46.831Z,14.80
2018-07-12T10:52:46.829Z,16.50
2018-07-12T10:53:46.713Z,17.60
2018-07-12T10:54:46.710Z,14.40
2018-07-12T10:55:46.716Z,14.50
2018-07-12T10:56:46.590Z,13.60
2018-07-12T10:57:46.592Z,15.50
2018-07-12T10:58:46.630Z,14.20
2018-07-12T10:59:46.546Z,13.50
2018-07-12T11:00:46.467Z,12.90
2018-07-12T11:01:46.467Z,13.60
2018-07-12T11:02:46.468Z,12.40
2018-07-12T11:03:46.348Z,14.40
2018-07-12T11:04:46.347Z,13.10
2018-07-12T11:05:46.349Z,14.00
2018-07-12T11:06:46.229Z,16.30
2018-07-12T11:07:46.227Z,15.50
2018-07-12T11:08:46.226Z,14.30
2018-07-12T11:09:46.226Z,17.00
2018-07-12T11:10:46.104Z,13.80
2018-07-12T11:11:46.105Z,12.30
2018-07-12T11:12:46.104Z,14.70
2018-07-12T11:13:45.983Z,18.50
2018-07-12T11:14:45.983Z,14.30
2018-07-12T11:15:46.022Z,15.10
2018-07-12T11:16:45.941Z,14.30
2018-07-12T11:17:45.867Z,15.90
2018-07-12T11:18:45.863Z,11.20
2018-07-12T11:19:45.862Z,12.10
2018-07-12T11:20:45.744Z,12.50
2018-07-12T11:21:45.746Z,13.60
2018-07-12T11:22:45.744Z,11.70
2018-07-12T11:23:45.620Z,13.50
2018-07-12T11:24:45.654Z,12.40
2018-07-12T11:25:45.627Z,11.50
2018-07-12T11:26:45.624Z,12.90
2018-07-12T11:27:45.502Z,11.60
2018-07-12T11:28:45.500Z,10.90
2018-07-12T11:29:45.521Z,11.40
2018-07-12T11:30:45.380Z,11.70
2018-07-12T11:31:45.383Z,12.50
2018-07-12T11:32:45.388Z,13.40
2018-07-12T11:33:45.381Z,12.20
2018-07-12T11:34:45.262Z,12.10
2018-07-12T11:35:45.259Z,12.70
2018-07-12T11:36:45.262Z,11.80
2018-07-12T11:37:45.141Z,10.10
2018-07-12T11:38:45.137Z,9.30
2018-07-12T11:39:45.146Z,12.10
2018-07-12T11:40:45.138Z,11.40
2018-07-12T11:41:45.020Z,13.60
2018-07-12T11:42:45.022Z,12.00
2018-07-12T11:43:45.022Z,12.00
2018-07-12T11:44:44.915Z,10.30
2018-07-12T11:45:44.900Z,11.50
2018-07-12T11:46:44.897Z,11.60
2018-07-12T11:47:44.858Z,12.90
2018-07-12T11:48:44.781Z,11.40
2018-07-12T11:49:44.777Z,11.50
2018-07-12T11:50:44.805Z,8.30
2018-07-12T11:51:44.661Z,7.40
2018-07-12T11:52:44.668Z,7.80
2018-07-12T11:53:44.659Z,11.10
2018-07-12T11:54:44.655Z,8.30
2018-07-12T11:55:44.540Z,12.10
2018-07-12T11:56:44.537Z,11.40
2018-07-12T11:57:44.537Z,9.80
2018-07-12T11:58:44.414Z,9.80
2018-07-12T11:59:44.413Z,9.30
2018-07-12T12:00:44.416Z,10.10
2018-07-12T12:01:44.501Z,9.00
2018-07-12T12:02:44.293Z,8.50
2018-07-12T12:03:44.298Z,9.30
2018-07-12T12:04:44.295Z,10.20
2018-07-12T12:05:44.174Z,13.70
2018-07-12T12:06:44.173Z,8.30
2018-07-12T12:07:44.177Z,9.50
2018-07-12T12:08:44.173Z,11.90
2018-07-12T12:09:44.054Z,10.70
2018-07-12T12:10:44.053Z,8.80
2018-07-12T12:11:44.054Z,10.50
2018-07-12T12:12:43.931Z,7.50
2018-07-12T12:13:43.933Z,8.50
2018-07-12T12:14:43.933Z,9.30
2018-07-12T12:15:43.930Z,8.10
2018-07-12T12:16:43.810Z,8.60
2018-07-12T12:17:43.819Z,8.10
2018-07-12T12:18:43.816Z,6.80
2018-07-12T12:19:43.815Z,10.20
2018-07-12T12:20:43.693Z,9.20
2018-07-12T12:21:43.695Z,8.70
2018-07-12T12:22:43.694Z,8.90
2018-07-12T12:23:43.570Z,12.10
2018-07-12T12:24:43.570Z,9.60
2018-07-12T12:25:43.568Z,10.20
2018-07-12T12:26:43.575Z,11.00
2018-07-12T12:27:43.450Z,8.00
2018-07-12T12:28:43.452Z,11.10
2018-07-12T12:29:43.450Z,8.40
2018-07-12T12:30:43.452Z,7.80
2018-07-12T12:31:43.331Z,8.50
2018-07-12T12:32:43.330Z,7.60
2018-07-12T12:33:43.327Z,9.20
2018-07-12T12:34:43.209Z,8.10
2018-07-12T12:35:43.210Z,10.60
2018-07-12T12:36:43.207Z,8.40
2018-07-12T12:37:43.212Z,8.30
2018-07-12T12:38:43.088Z,7.30
2018-07-12T12:39:43.085Z,7.80
2018-07-12T12:40:43.085Z,8.80
2018-07-12T12:41:43.088Z,7.60
2018-07-12T12:42:42.968Z,6.90
2018-07-12T12:43:42.964Z,9.40
2018-07-12T12:44:42.965Z,7.30
2018-07-12T12:45:42.844Z,6.20
2018-07-12T12:46:42.844Z,6.60
2018-07-12T12:47:42.846Z,6.00
2018-07-12T12:48:42.844Z,9.70
2018-07-12T12:49:42.726Z,4.40
2018-07-12T12:50:42.723Z,6.30
2018-07-12T12:51:42.723Z,4.60
2018-07-12T12:52:42.723Z,7.40
2018-07-12T12:53:42.607Z,6.40